createdAt,value
2023-02-22T00:00:31.291Z,0.00
2023-02-22T00:01:31.310Z,0.00
2023-02-22T00:02:31.287Z,0.00
2023-02-22T00:03:31.279Z,0.00
2023-02-22T00:04:31.285Z,0.00
2023-02-22T00:05:31.286Z,0.00
2023-02-22T00:06:31.265Z,0.00
2023-02-22T00:07:31.276Z,0.00
2023-02-22T00:08:31.276Z,0.00
2023-02-22T00:09:31.269Z,0.00
2023-02-22T00:10:31.243Z,0.00
2023-02-22T00:11:31.250Z,0.00
2023-02-22T00:12:31.239Z,0.00
2023-02-22T00:13:31.260Z,0.00
2023-02-22T00:14:31.234Z,0.00
2023-02-22T00:15:31.242Z,0.00
2023-02-22T00:16:31.322Z,0.00
2023-02-22T00:17:31.232Z,0.00
2023-02-22T00:18:31.215Z,0.00
2023-02-22T00:19:31.420Z,0.00
2023-02-22T00:20:31.208Z,0.00
2023-02-22T00:21:31.233Z,0.00
2023-02-22T00:22:31.196Z,0.00
2023-02-22T00:23:31.231Z,0.00
2023-02-22T00:24:31.229Z,0.00
2023-02-22T00:25:31.197Z,0.00
2023-02-22T00:26:31.204Z,0.00
2023-02-22T00:27:31.188Z,0.00
2023-02-22T00:28:31.188Z,0.00
2023-02-22T00:29:31.191Z,0.00
2023-02-22T00:30:31.207Z,0.00
2023-02-22T00:31:31.179Z,0.00
2023-02-22T00:32:31.159Z,0.00
2023-02-22T00:33:31.174Z,0.00
2023-02-22T00:34:31.161Z,0.00
2023-02-22T00:35:31.152Z,0.00
2023-02-22T00:36:31.149Z,0.00
2023-02-22T00:37:31.147Z,0.00
2023-02-22T00:38:31.137Z,0.00
2023-02-22T00:39:31.139Z,0.00
2023-02-22T00:40:31.121Z,0.00
2023-02-22T00:41:31.162Z,0.00
2023-02-22T00:42:31.125Z,0.00
2023-02-22T00:43:31.102Z,0.00
2023-02-22T00:44:31.106Z,0.00
2023-02-22T00:45:31.198Z,0.00
2023-02-22T00:46:31.084Z,0.00
2023-02-22T00:47:31.120Z,0.00
2023-02-22T00:48:31.072Z,0.00
2023-02-22T00:49:31.107Z,0.00
2023-02-22T00:50:31.078Z,0.00
2023-02-22T00:51:31.092Z,0.00
2023-02-22T00:52:31.059Z,0.00
2023-02-22T00:53:31.077Z,0.00
2023-02-22T00:54:31.066Z,0.00
2023-02-22T00:55:31.051Z,0.00
2023-02-22T00:56:31.062Z,0.00
2023-02-22T00:57:31.056Z,0.00
2023-02-22T00:58:31.036Z,0.00
2023-02-22T00:59:31.037Z,0.00
2023-02-22T01:00:31.022Z,0.00
2023-02-22T01:01:31.204Z,0.00
2023-02-22T01:02:31.045Z,0.00
2023-02-22T01:03:31.023Z,0.00
2023-02-22T01:04:31.011Z,0.00
2023-02-22T01:05:31.018Z,0.00
2023-02-22T01:06:31.011Z,0.00
2023-02-22T01:07:31.011Z,0.00
2023-02-22T01:08:30.999Z,0.00
2023-02-22T01:09:30.992Z,0.00
2023-02-22T01:10:30.986Z,0.00
2023-02-22T01:11:30.990Z,0.00
2023-02-22T01:12:30.979Z,0.00
2023-02-22T01:13:30.971Z,0.00
2023-02-22T01:14:30.963Z,0.00
2023-02-22T01:15:31.002Z,0.00
2023-02-22T01:16:31.040Z,0.00
2023-02-22T01:17:30.988Z,0.00
2023-02-22T01:18:30.948Z,0.00
2023-02-22T01:19:30.963Z,0.00
2023-02-22T01:20:30.950Z,0.00
2023-02-22T01:21:30.938Z,0.00
2023-02-22T01:22:30.938Z,0.00
2023-02-22T01:23:30.931Z,0.00
2023-02-22T01:24:30.918Z,0.00
2023-02-22T01:25:30.918Z,0.00
2023-02-22T01:26:30.933Z,0.00
2023-02-22T01:27:30.911Z,0.00
2023-02-22T01:28:30.901Z,0.00
2023-02-22T01:29:30.924Z,0.00
2023-02-22T01:30:31.103Z,0.00
2023-02-22T01:31:30.950Z,0.00
2023-02-22T01:32:30.884Z,0.00
2023-02-22T01:33:30.899Z,0.00
2023-02-22T01:34:30.886Z,0.00
2023-02-22T01:35:30.880Z,0.00
2023-02-22T01:36:30.864Z,0.00
2023-02-22T01:37:30.856Z,0.00
2023-02-22T01:38:30.856Z,0.00
2023-02-22T01:39:30.864Z,0.00
2023-02-22T01:40:30.867Z,0.00
2023-02-22T01:41:30.852Z,0.00
2023-02-22T01:42:30.834Z,0.00
2023-02-22T01:43:30.877Z,0.00
2023-02-22T01:44:30.850Z,0.00
2023-02-22T01:45:30.965Z,0.00
2023-02-22T01:46:30.818Z,0.00
2023-02-22T01:47:30.819Z,0.00
2023-02-22T01:48:30.836Z,0.00
2023-02-22T01:49:30.834Z,0.00
2023-02-22T01:50:30.811Z,0.00
2023-02-22T01:51:30.801Z,0.00
2023-02-22T01:52:30.804Z,0.00
2023-02-22T01:53:30.795Z,0.00
2023-02-22T01:54:30.797Z,0.00
2023-02-22T01:55:30.781Z,0.00
2023-02-22T01:56:30.813Z,0.00
2023-02-22T01:57:30.760Z,0.00
2023-02-22T01:58:30.774Z,0.00
2023-02-22T01:59:30.766Z,0.00
2023-02-22T02:00:30.749Z,0.00
2023-02-22T02:01:30.764Z,0.00
2023-02-22T02:02:30.748Z,0.00
2023-02-22T02:03:30.784Z,0.00
2023-02-22T02:04:30.756Z,0.00
2023-02-22T02:05:30.763Z,0.00
2023-02-22T02:06:30.729Z,0.00
2023-02-22T02:07:30.720Z,0.00
2023-02-22T02:08:30.726Z,0.00
2023-02-22T02:09:30.702Z,0.00
2023-02-22T02:10:30.704Z,0.00
2023-02-22T02:11:30.705Z,0.00
2023-02-22T02:12:30.701Z,0.00
2023-02-22T02:13:30.712Z,0.00
2023-02-22T02:14:30.697Z,0.00
2023-02-22T02:15:30.722Z,0.00
2023-02-22T02:16:30.731Z,0.00
2023-02-22T02:17:30.696Z,0.00
2023-02-22T02:18:30.678Z,0.00
2023-02-22T02:19:30.680Z,0.00
2023-02-22T02:20:30.677Z,0.00
2023-02-22T02:21:30.697Z,0.00
2023-02-22T02:22:30.672Z,0.00
2023-02-22T02:23:30.664Z,0.00
2023-02-22T02:24:30.680Z,0.00
2023-02-22T02:25:30.636Z,0.00
2023-02-22T02:26:30.652Z,0.00
2023-02-22T02:27:30.652Z,0.00
2023-02-22T02:28:30.635Z,0.00
2023-02-22T02:29:30.629Z,0.00
2023-02-22T02:30:30.661Z,0.00
2023-02-22T02:31:30.672Z,0.00
2023-02-22T02:32:30.643Z,0.00
2023-02-22T02:33:30.611Z,0.00
2023-02-22T02:34:30.619Z,0.00
2023-02-22T02:35:30.608Z,0.00
2023-02-22T02:36:30.611Z,0.00
2023-02-22T02:37:30.608Z,0.00
2023-02-22T02:38:30.694Z,0.00
2023-02-22T02:39:30.576Z,0.00
2023-02-22T02:40:30.679Z,0.00
2023-02-22T02:41:30.567Z,0.00
2023-02-22T02:42:30.559Z,0.00
2023-02-22T02:43:30.556Z,0.00
2023-02-22T02:44:30.553Z,0.00
2023-02-22T02:45:30.545Z,0.00
2023-02-22T02:46:30.551Z,0.00
2023-02-22T02:47:30.599Z,0.00
2023-02-22T02:48:30.552Z,0.00
2023-02-22T02:49:30.540Z,0.00
2023-02-22T02:50:30.550Z,0.00
2023-02-22T02:51:30.532Z,0.00
2023-02-22T02:52:30.519Z,0.00
2023-02-22T02:53:30.530Z,0.00
2023-02-22T02:54:30.522Z,0.00
2023-02-22T02:55:30.522Z,0.00
2023-02-22T02:56:30.510Z,0.00
2023-02-22T02:57:30.487Z,0.00
2023-02-22T02:58:30.519Z,0.00
2023-02-22T02:59:30.482Z,0.00
2023-02-22T03:00:30.502Z,0.00
2023-02-22T03:01:30.532Z,0.00
2023-02-22T03:02:30.491Z,0.00
2023-02-22T03:03:30.479Z,0.00
2023-02-22T03:04:30.465Z,0.00
2023-02-22T03:05:30.478Z,0.00
2023-02-22T03:06:30.492Z,0.00
2023-02-22T03:07:30.472Z,0.00
2023-02-22T03:08:30.476Z,0.00
2023-02-22T03:09:30.452Z,0.00
2023-02-22T03:10:30.444Z,0.00
2023-02-22T03:11:30.447Z,0.00
2023-02-22T03:12:30.441Z,0.00
2023-02-22T03:13:30.421Z,0.00
2023-02-22T03:14:30.415Z,0.00
2023-02-22T03:15:30.424Z,0.00
2023-02-22T03:16:30.517Z,0.00
2023-02-22T03:17:30.411Z,0.00
2023-02-22T03:18:30.410Z,0.00
2023-02-22T03:19:30.392Z,0.00
2023-02-22T03:20:30.392Z,0.00
2023-02-22T03:21:30.395Z,0.00
2023-02-22T03:22:30.392Z,0.00
2023-02-22T03:23:30.377Z,0.00
2023-02-22T03:24:30.385Z,0.00
2023-02-22T03:25:30.387Z,0.00
2023-02-22T03:26:30.380Z,0.00
2023-02-22T03:27:30.351Z,0.00
2023-02-22T03:28:30.358Z,0.00
2023-02-22T03:29:30.345Z,0.00
2023-02-22T03:30:30.433Z,0.00
2023-02-22T03:31:30.371Z,0.00
2023-02-22T03:32:30.350Z,0.00
2023-02-22T03:33:30.328Z,0.00
2023-02-22T03:34:30.323Z,0.00
2023-02-22T03:35:30.323Z,0.00
2023-02-22T03:36:30.338Z,0.00
2023-02-22T03:37:30.321Z,0.00
2023-02-22T03:38:30.313Z,0.00
2023-02-22T03:39:30.311Z,0.00
2023-02-22T03:40:30.296Z,0.00
2023-02-22T03:41:30.334Z,0.00
2023-02-22T03:42:30.320Z,0.00
2023-02-22T03:43:30.291Z,0.00
2023-02-22T03:44:30.296Z,0.00
2023-02-22T03:45:30.289Z,0.00
2023-02-22T03:46:30.373Z,0.00
2023-02-22T03:47:30.287Z,0.00
2023-02-22T03:48:30.278Z,0.00
2023-02-22T03:49:30.268Z,0.00
2023-02-22T03:50:30.268Z,0.00
2023-02-22T03:51:30.252Z,0.00
2023-02-22T03:52:30.264Z,0.00
2023-02-22T03:53:30.247Z,0.00
2023-02-22T03:54:30.250Z,0.00
2023-02-22T03:55:30.221Z,0.00
2023-02-22T03:56:30.243Z,0.00
2023-02-22T03:57:30.241Z,0.00
2023-02-22T03:58:30.212Z,0.00
2023-02-22T03:59:30.207Z,0.00
2023-02-22T04:00:30.213Z,0.00
2023-02-22T04:01:30.208Z,0.00
2023-02-22T04:02:30.196Z,0.00
2023-02-22T04:03:30.185Z,0.00
2023-02-22T04:04:30.228Z,0.00
2023-02-22T04:05:30.194Z,0.00
2023-02-22T04:06:30.192Z,0.00
2023-02-22T04:07:30.165Z,0.00
2023-02-22T04:08:30.189Z,0.00
2023-02-22T04:09:30.165Z,0.00
2023-02-22T04:10:30.162Z,0.00
2023-02-22T04:11:30.176Z,0.00
2023-02-22T04:12:30.168Z,0.00
2023-02-22T04:13:30.158Z,0.00
2023-02-22T04:14:30.147Z,0.00
2023-02-22T04:15:30.138Z,0.00
2023-02-22T04:16:30.149Z,0.00
2023-02-22T04:17:30.133Z,0.00
2023-02-22T04:18:30.122Z,0.00
2023-02-22T04:19:30.148Z,0.00
2023-02-22T04:20:30.138Z,0.00
2023-02-22T04:21:30.104Z,0.00
2023-02-22T04:22:30.119Z,0.00
2023-02-22T04:23:30.104Z,0.00
2023-02-22T04:24:30.694Z,0.00
2023-02-22T04:25:30.087Z,0.00
2023-02-22T04:26:30.095Z,0.00
2023-02-22T04:27:30.090Z,0.00
2023-02-22T04:28:30.077Z,0.00
2023-02-22T04:29:30.096Z,0.00
2023-02-22T04:30:30.221Z,0.00
2023-02-22T04:31:30.101Z,0.00
2023-02-22T04:32:30.079Z,0.00
2023-02-22T04:33:30.057Z,0.00
2023-02-22T04:34:30.044Z,0.00
2023-02-22T04:35:30.044Z,0.00
2023-02-22T04:36:30.053Z,0.00
2023-02-22T04:37:30.045Z,0.00
2023-02-22T04:38:30.044Z,0.00
2023-02-22T04:39:30.090Z,0.00
2023-02-22T04:40:30.036Z,0.00
2023-02-22T04:41:30.023Z,0.00
2023-02-22T04:42:30.020Z,0.00
2023-02-22T04:43:30.020Z,0.00
2023-02-22T04:44:30.008Z,0.00
2023-02-22T04:45:30.016Z,0.00
2023-02-22T04:46:30.064Z,0.00
2023-02-22T04:47:29.994Z,0.00
2023-02-22T04:48:29.995Z,0.00
2023-02-22T04:49:29.973Z,0.00
2023-02-22T04:50:29.969Z,0.00
2023-02-22T04:51:29.966Z,0.00
2023-02-22T04:52:29.963Z,0.00
2023-02-22T04:53:29.974Z,0.00
2023-02-22T04:54:29.968Z,0.00
2023-02-22T04:55:29.948Z,0.00
2023-02-22T04:56:29.947Z,0.00
2023-02-22T04:57:29.945Z,0.00
2023-02-22T04:58:29.957Z,0.00
2023-02-22T04:59:29.947Z,0.00
2023-02-22T05:00:29.948Z,0.00
2023-02-22T05:01:29.955Z,0.00
2023-02-22T05:02:29.982Z,0.00
2023-02-22T05:03:29.918Z,0.00
2023-02-22T05:04:29.937Z,0.00
2023-02-22T05:05:29.906Z,0.00
2023-02-22T05:06:29.917Z,0.00
2023-02-22T05:07:29.895Z,0.00
2023-02-22T05:08:29.892Z,0.00
2023-02-22T05:09:29.891Z,0.00
2023-02-22T05:10:29.894Z,0.00
2023-02-22T05:11:29.886Z,0.00
2023-02-22T05:12:29.896Z,0.00
2023-02-22T05:13:29.862Z,0.00
2023-02-22T05:14:29.864Z,0.00
2023-02-22T05:15:29.874Z,0.00
2023-02-22T05:16:29.863Z,0.00
2023-02-22T05:17:29.886Z,0.00
2023-02-22T05:18:29.878Z,0.00
2023-02-22T05:19:29.839Z,0.00
2023-02-22T05:20:29.841Z,0.00
2023-02-22T05:21:29.860Z,0.00
2023-02-22T05:22:29.828Z,0.00
2023-02-22T05:23:29.818Z,0.00
2023-02-22T05:24:29.823Z,0.00
2023-02-22T05:25:29.825Z,0.00
2023-02-22T05:26:29.846Z,0.00
2023-02-22T05:27:29.813Z,0.00
2023-02-22T05:28:29.815Z,0.00
2023-02-22T05:29:29.806Z,0.00
2023-02-22T05:30:29.857Z,0.00
2023-02-22T05:31:29.890Z,0.00
2023-02-22T05:32:29.780Z,0.00
2023-02-22T05:33:29.807Z,0.00
2023-02-22T05:34:29.795Z,0.00
2023-02-22T05:35:29.781Z,0.00
2023-02-22T05:36:29.781Z,0.00
2023-02-22T05:37:29.768Z,0.00
2023-02-22T05:38:29.765Z,0.00
2023-02-22T05:39:29.766Z,0.00
2023-02-22T05:40:29.743Z,0.00
2023-02-22T05:41:29.760Z,0.00
2023-02-22T05:42:29.761Z,0.00
2023-02-22T05:43:29.733Z,0.00
2023-02-22T05:44:29.724Z,0.00
2023-02-22T05:45:29.721Z,0.00
2023-02-22T05:46:29.786Z,0.00
2023-02-22T05:47:29.772Z,0.00
2023-02-22T05:48:29.721Z,0.00
2023-02-22T05:49:29.738Z,0.00
2023-02-22T05:50:29.721Z,0.00
2023-02-22T05:51:29.713Z,0.00
2023-02-22T05:52:29.702Z,0.00
2023-02-22T05:53:29.703Z,0.00
2023-02-22T05:54:29.677Z,0.00
2023-02-22T05:55:29.708Z,0.00
2023-02-22T05:56:29.672Z,0.00
2023-02-22T05:57:29.704Z,0.00
2023-02-22T05:58:29.724Z,0.00
2023-02-22T05:59:29.681Z,0.00
2023-02-22T06:00:29.697Z,0.00
2023-02-22T06:01:29.663Z,0.00
2023-02-22T06:02:29.689Z,0.00
2023-02-22T06:03:29.653Z,0.00
2023-02-22T06:04:29.668Z,0.00
2023-02-22T06:05:29.775Z,0.00
2023-02-22T06:06:29.632Z,8.00
2023-02-22T06:07:29.646Z,8.00
2023-02-22T06:08:29.615Z,4.00
2023-02-22T06:09:29.763Z,8.00
2023-02-22T06:10:29.634Z,8.00
2023-02-22T06:11:29.670Z,8.00
2023-02-22T06:12:29.600Z,8.00
2023-02-22T06:13:29.601Z,8.00
2023-02-22T06:14:29.610Z,8.00
2023-02-22T06:15:29.630Z,8.00
2023-02-22T06:16:29.621Z,8.00
2023-02-22T06:17:29.602Z,8.00
2023-02-22T06:18:29.576Z,8.00
2023-02-22T06:19:29.589Z,8.00
2023-02-22T06:20:29.598Z,12.00
2023-02-22T06:21:29.598Z,8.00
2023-02-22T06:22:29.560Z,8.00
2023-02-22T06:23:29.600Z,8.00
2023-02-22T06:24:29.552Z,12.00
2023-02-22T06:25:29.572Z,12.00
2023-02-22T06:26:29.546Z,8.00
2023-02-22T06:27:29.543Z,8.00
2023-02-22T06:28:29.537Z,8.00
2023-02-22T06:29:29.551Z,8.00
2023-02-22T06:30:29.628Z,8.00
2023-02-22T06:31:29.564Z,4.00
2023-02-22T06:32:29.587Z,8.00
2023-02-22T06:33:29.521Z,12.00
2023-02-22T06:34:29.522Z,8.00
2023-02-22T06:35:29.542Z,12.00
2023-02-22T06:36:29.510Z,8.00
2023-02-22T06:37:29.538Z,8.00
2023-02-22T06:38:29.519Z,8.00
2023-02-22T06:39:29.507Z,12.00
2023-02-22T06:40:29.677Z,16.00
2023-02-22T06:41:29.493Z,16.00
2023-02-22T06:42:29.546Z,16.00
2023-02-22T06:43:29.501Z,16.00
2023-02-22T06:44:29.524Z,20.00
2023-02-22T06:45:29.494Z,20.00
2023-02-22T06:46:29.489Z,24.00
2023-02-22T06:47:29.483Z,24.00
2023-02-22T06:48:29.481Z,28.00
2023-02-22T06:49:29.467Z,28.00
2023-02-22T06:50:29.492Z,32.00
2023-02-22T06:51:29.477Z,32.00
2023-02-22T06:52:29.462Z,32.00
2023-02-22T06:53:29.483Z,36.00
2023-02-22T06:54:29.468Z,36.00
2023-02-22T06:55:29.444Z,40.00
2023-02-22T06:56:29.474Z,40.00
2023-02-22T06:57:29.452Z,44.00
2023-02-22T06:58:29.428Z,44.00
2023-02-22T06:59:29.437Z,44.00
2023-02-22T07:00:29.441Z,48.00
2023-02-22T07:01:29.437Z,52.00
2023-02-22T07:02:29.417Z,56.00
2023-02-22T07:03:29.472Z,56.00
2023-02-22T07:04:29.431Z,56.00
2023-02-22T07:05:29.408Z,60.00
2023-02-22T07:06:29.403Z,60.00
2023-02-22T07:07:29.416Z,60.00
2023-02-22T07:08:29.424Z,64.00
2023-02-22T07:09:29.431Z,64.00
2023-02-22T07:10:29.473Z,68.00
2023-02-22T07:11:29.401Z,68.00
2023-02-22T07:12:29.381Z,68.00
2023-02-22T07:13:29.398Z,72.00
2023-02-22T07:14:29.375Z,72.00
2023-02-22T07:15:29.378Z,76.00
2023-02-22T07:16:29.380Z,72.00
2023-02-22T07:17:29.378Z,76.00
2023-02-22T07:18:30.873Z,80.00
2023-02-22T07:19:29.391Z,80.00
2023-02-22T07:20:29.350Z,80.00
2023-02-22T07:21:29.369Z,84.00
2023-02-22T07:22:29.365Z,88.00
2023-02-22T07:23:29.352Z,84.00
2023-02-22T07:24:29.359Z,88.00
2023-02-22T07:25:29.368Z,92.00
2023-02-22T07:26:29.350Z,92.00
2023-02-22T07:27:29.335Z,96.00
2023-02-22T07:28:29.339Z,100.00
2023-02-22T07:29:29.358Z,100.00
2023-02-22T07:30:29.404Z,104.00
2023-02-22T07:31:29.790Z,108.00
2023-02-22T07:32:29.534Z,112.00
2023-02-22T07:33:29.327Z,116.00
2023-02-22T07:34:29.318Z,120.00
2023-02-22T07:35:29.310Z,124.00
2023-02-22T07:36:29.312Z,128.00
2023-02-22T07:37:29.300Z,136.00
2023-02-22T07:38:29.314Z,140.00
2023-02-22T07:39:29.318Z,144.00
2023-02-22T07:40:29.279Z,144.00
2023-02-22T07:41:29.314Z,148.00
2023-02-22T07:42:29.286Z,148.00
2023-02-22T07:43:29.276Z,148.00
2023-02-22T07:44:29.267Z,152.00
2023-02-22T07:45:29.311Z,152.00
2023-02-22T07:46:29.271Z,152.00
2023-02-22T07:47:29.265Z,152.00
2023-02-22T07:48:29.276Z,152.00
2023-02-22T07:49:29.264Z,156.00
2023-02-22T07:50:29.245Z,152.00
2023-02-22T07:51:29.251Z,156.00
2023-02-22T07:52:29.241Z,156.00
2023-02-22T07:53:29.238Z,160.00
2023-02-22T07:54:29.239Z,160.00
2023-02-22T07:55:29.229Z,160.00
2023-02-22T07:56:29.252Z,160.00
2023-02-22T07:57:29.264Z,164.00
2023-02-22T07:58:29.231Z,168.00
2023-02-22T07:59:29.216Z,176.00
2023-02-22T08:00:29.216Z,172.00
2023-02-22T08:01:29.230Z,176.00
2023-02-22T08:02:29.278Z,176.00
2023-02-22T08:03:29.245Z,176.00
2023-02-22T08:04:29.202Z,176.00
2023-02-22T08:05:29.208Z,172.00
2023-02-22T08:06:29.188Z,172.00
2023-02-22T08:07:29.206Z,168.00
2023-02-22T08:08:29.197Z,168.00
2023-02-22T08:09:29.179Z,168.00
2023-02-22T08:10:29.186Z,176.00
2023-02-22T08:11:29.181Z,176.00
2023-02-22T08:12:29.157Z,176.00
2023-02-22T08:13:29.179Z,176.00
2023-02-22T08:14:29.153Z,176.00
2023-02-22T08:15:29.150Z,184.00
2023-02-22T08:16:29.150Z,180.00
2023-02-22T08:17:29.165Z,184.00
2023-02-22T08:18:29.135Z,188.00
2023-02-22T08:19:29.137Z,192.00
2023-02-22T08:20:29.158Z,196.00
2023-02-22T08:21:29.133Z,200.00
2023-02-22T08:22:29.123Z,204.00
2023-02-22T08:23:29.148Z,204.00
2023-02-22T08:24:29.112Z,208.00
2023-02-22T08:25:29.114Z,212.00
2023-02-22T08:26:29.126Z,212.00
2023-02-22T08:27:29.110Z,216.00
2023-02-22T08:28:29.097Z,216.00
2023-02-22T08:29:29.138Z,216.00
2023-02-22T08:30:29.175Z,220.00
2023-02-22T08:31:29.151Z,212.00
2023-02-22T08:32:29.347Z,220.00
2023-02-22T08:33:29.100Z,216.00
2023-02-22T08:34:29.097Z,216.00
2023-02-22T08:35:29.094Z,220.00
2023-02-22T08:36:29.095Z,220.00
2023-02-22T08:37:29.065Z,220.00
2023-02-22T08:38:29.074Z,212.00
2023-02-22T08:39:29.066Z,224.00
2023-02-22T08:40:29.070Z,228.00
2023-02-22T08:41:29.066Z,232.00
2023-02-22T08:42:29.060Z,232.00
2023-02-22T08:43:29.050Z,236.00
2023-02-22T08:44:29.069Z,240.00
2023-02-22T08:45:29.105Z,240.00
2023-02-22T08:46:29.023Z,240.00
2023-02-22T08:47:29.025Z,240.00
2023-02-22T08:48:29.014Z,244.00
2023-02-22T08:49:29.019Z,244.00
2023-02-22T08:50:29.030Z,244.00
2023-02-22T08:51:29.026Z,244.00
2023-02-22T08:52:28.997Z,244.00
2023-02-22T08:53:28.997Z,248.00
2023-02-22T08:54:29.001Z,248.00
2023-02-22T08:55:29.005Z,244.00
2023-02-22T08:56:28.993Z,248.00
2023-02-22T08:57:28.982Z,248.00
2023-02-22T08:58:28.988Z,244.00
2023-02-22T08:59:28.992Z,244.00
2023-02-22T09:00:28.966Z,244.00
2023-02-22T09:01:33.469Z,244.00
2023-02-22T09:02:28.975Z,244.00
2023-02-22T09:03:29.039Z,244.00
2023-02-22T09:04:28.948Z,244.00
2023-02-22T09:05:31.211Z,248.00
2023-02-22T09:06:28.942Z,256.00
2023-02-22T09:07:28.938Z,256.00
2023-02-22T09:08:28.948Z,256.00
2023-02-22T09:09:28.930Z,252.00
2023-02-22T09:10:28.930Z,256.00
2023-02-22T09:11:28.940Z,260.00
2023-02-22T09:12:28.934Z,260.00
2023-02-22T09:13:28.920Z,264.00
2023-02-22T09:14:28.921Z,264.00
2023-02-22T09:15:28.944Z,264.00
2023-02-22T09:16:28.949Z,268.00
2023-02-22T09:17:28.940Z,264.00
2023-02-22T09:18:42.366Z,272.00
2023-02-22T09:19:28.912Z,272.00
2023-02-22T09:20:28.921Z,272.00
2023-02-22T09:21:28.904Z,276.00
2023-02-22T09:22:28.883Z,276.00
2023-02-22T09:23:28.895Z,280.00
2023-02-22T09:24:28.870Z,276.00
2023-02-22T09:25:28.879Z,280.00
2023-02-22T09:26:28.877Z,280.00
2023-02-22T09:27:28.903Z,280.00
2023-02-22T09:28:29.317Z,284.00
2023-02-22T09:29:28.866Z,284.00
2023-02-22T09:30:28.933Z,280.00
2023-02-22T09:31:29.003Z,280.00
2023-02-22T09:32:29.013Z,276.00
2023-02-22T09:33:28.993Z,276.00
2023-02-22T09:34:28.837Z,284.00
2023-02-22T09:35:28.830Z,284.00
2023-02-22T09:36:28.872Z,284.00
2023-02-22T09:37:28.826Z,280.00
2023-02-22T09:38:28.820Z,280.00
2023-02-22T09:39:28.856Z,280.00
2023-02-22T09:40:28.800Z,280.00
2023-02-22T09:41:28.808Z,276.00
2023-02-22T09:42:28.818Z,280.00
2023-02-22T09:43:28.808Z,276.00
2023-02-22T09:44:28.809Z,276.00
2023-02-22T09:45:28.832Z,276.00
2023-02-22T09:46:28.779Z,280.00
2023-02-22T09:47:28.825Z,280.00
2023-02-22T09:48:28.788Z,284.00
2023-02-22T09:49:28.820Z,284.00
2023-02-22T09:50:28.769Z,288.00
2023-02-22T09:51:28.779Z,288.00
2023-02-22T09:52:28.757Z,292.00
2023-02-22T09:53:28.788Z,292.00
2023-02-22T09:54:28.776Z,292.00
2023-02-22T09:55:28.798Z,296.00
2023-02-22T09:56:28.748Z,300.00
2023-02-22T09:57:28.768Z,300.00
2023-02-22T09:58:28.742Z,304.00
2023-02-22T09:59:28.743Z,304.00
2023-02-22T10:00:28.742Z,296.00
2023-02-22T10:01:28.763Z,292.00
2023-02-22T10:02:28.757Z,292.00
2023-02-22T10:03:28.777Z,288.00
2023-02-22T10:04:28.716Z,284.00
2023-02-22T10:05:28.890Z,284.00
2023-02-22T10:06:28.726Z,284.00
2023-02-22T10:07:28.728Z,284.00
2023-02-22T10:08:31.012Z,284.00
2023-02-22T10:09:28.715Z,280.00
2023-02-22T10:10:28.713Z,280.00
2023-02-22T10:11:28.688Z,276.00
2023-02-22T10:12:28.694Z,280.00
2023-02-22T10:13:28.694Z,280.00
2023-02-22T10:14:28.694Z,276.00
2023-02-22T10:15:28.689Z,276.00
2023-02-22T10:16:28.724Z,276.00
2023-02-22T10:17:28.659Z,280.00
2023-02-22T10:18:28.679Z,280.00
2023-02-22T10:19:28.673Z,284.00
2023-02-22T10:20:28.684Z,280.00
2023-02-22T10:21:28.678Z,288.00
2023-02-22T10:22:28.658Z,288.00
2023-02-22T10:23:28.647Z,292.00
2023-02-22T10:24:28.637Z,296.00
2023-02-22T10:25:28.661Z,292.00
2023-02-22T10:26:28.655Z,292.00
2023-02-22T10:27:28.641Z,296.00
2023-02-22T10:28:28.634Z,292.00
2023-02-22T10:29:28.632Z,292.00
2023-02-22T10:30:29.055Z,296.00
2023-02-22T10:31:28.795Z,296.00
2023-02-22T10:32:28.619Z,288.00
2023-02-22T10:33:28.604Z,288.00
2023-02-22T10:34:28.616Z,284.00
2023-02-22T10:35:28.592Z,284.00
2023-02-22T10:36:28.603Z,276.00
2023-02-22T10:37:28.702Z,268.00
2023-02-22T10:38:28.604Z,268.00
2023-02-22T10:39:28.622Z,256.00
2023-02-22T10:40:28.589Z,256.00
2023-02-22T10:41:28.573Z,252.00
2023-02-22T10:42:28.570Z,244.00
2023-02-22T10:43:28.576Z,244.00
2023-02-22T10:44:28.567Z,240.00
2023-02-22T10:45:28.559Z,236.00
2023-02-22T10:46:28.565Z,236.00
2023-02-22T10:47:28.560Z,236.00
2023-02-22T10:48:28.568Z,232.00
2023-02-22T10:49:28.539Z,236.00
2023-02-22T10:50:28.541Z,228.00
2023-02-22T10:51:28.544Z,228.00
2023-02-22T10:52:28.543Z,224.00
2023-02-22T10:53:28.548Z,228.00
2023-02-22T10:54:28.549Z,224.00
2023-02-22T10:55:28.514Z,220.00
2023-02-22T10:56:28.530Z,228.00
2023-02-22T10:57:28.521Z,228.00
2023-02-22T10:58:28.511Z,224.00
2023-02-22T10:59:28.514Z,224.00
2023-02-22T11:00:28.527Z,224.00
2023-02-22T11:01:28.555Z,220.00
2023-02-22T11:02:28.492Z,216.00
2023-02-22T11:03:28.496Z,204.00
2023-02-22T11:04:28.502Z,212.00
2023-02-22T11:05:28.487Z,200.00
2023-02-22T11:06:28.485Z,208.00
2023-02-22T11:07:28.473Z,208.00
2023-02-22T11:08:28.486Z,204.00
2023-02-22T11:09:28.487Z,200.00
2023-02-22T11:10:28.470Z,200.00
2023-02-22T11:11:28.451Z,200.00
2023-02-22T11:12:28.459Z,200.00
2023-02-22T11:13:28.479Z,200.00
2023-02-22T11:14:28.447Z,200.00
2023-02-22T11:15:28.455Z,196.00
2023-02-22T11:16:28.546Z,192.00
2023-02-22T11:17:28.443Z,192.00
2023-02-22T11:18:28.447Z,188.00
2023-02-22T11:19:28.420Z,184.00
2023-02-22T11:20:28.429Z,184.00
2023-02-22T11:21:28.408Z,184.00
2023-02-22T11:22:28.424Z,188.00
2023-02-22T11:23:28.416Z,188.00
2023-02-22T11:24:34.617Z,192.00
2023-02-22T11:25:28.424Z,188.00
2023-02-22T11:26:28.406Z,200.00
2023-02-22T11:27:28.426Z,204.00
2023-02-22T11:28:28.410Z,208.00
2023-02-22T11:29:28.379Z,204.00
2023-02-22T11:30:28.526Z,212.00
2023-02-22T11:31:28.462Z,208.00
2023-02-22T11:32:28.369Z,216.00
2023-02-22T11:33:28.365Z,216.00
2023-02-22T11:34:28.370Z,216.00
2023-02-22T11:35:28.353Z,216.00
2023-02-22T11:36:28.354Z,220.00
2023-02-22T11:37:28.354Z,224.00
2023-02-22T11:38:28.449Z,228.00
2023-02-22T11:39:28.435Z,232.00
2023-02-22T11:40:28.341Z,232.00
2023-02-22T11:41:28.372Z,224.00
2023-02-22T11:42:28.337Z,224.00
2023-02-22T11:43:28.316Z,224.00
2023-02-22T11:44:28.333Z,224.00
2023-02-22T11:45:28.320Z,224.00
2023-02-22T11:46:28.356Z,216.00
2023-02-22T11:47:28.303Z,212.00
2023-02-22T11:48:28.305Z,212.00
2023-02-22T11:49:28.293Z,208.00
2023-02-22T11:50:28.309Z,208.00
2023-02-22T11:51:28.297Z,204.00
2023-02-22T11:52:28.361Z,200.00
2023-02-22T11:53:28.274Z,196.00
2023-02-22T11:54:28.279Z,192.00
2023-02-22T11:55:41.708Z,188.00
2023-02-22T11:56:37.314Z,188.00
2023-02-22T11:57:28.322Z,184.00
2023-02-22T11:58:28.260Z,184.00
2023-02-22T11:59:28.280Z,184.00
2023-02-22T12:00:28.274Z,184.00
2023-02-22T12:01:28.248Z,188.00
2023-02-22T12:02:28.247Z,188.00
2023-02-22T12:03:28.912Z,188.00
2023-02-22T12:04:28.364Z,188.00
2023-02-22T12:05:28.237Z,188.00
2023-02-22T12:06:28.245Z,184.00
2023-02-22T12:07:28.223Z,184.00
2023-02-22T12:08:28.224Z,180.00
2023-02-22T12:09:28.220Z,180.00
2023-02-22T12:10:28.234Z,172.00
2023-02-22T12:11:28.210Z,172.00
2023-02-22T12:12:28.232Z,176.00
2023-02-22T12:13:28.230Z,176.00
2023-02-22T12:14:28.220Z,180.00
2023-02-22T12:15:28.250Z,180.00
2023-02-22T12:16:28.199Z,176.00
2023-02-22T12:17:28.198Z,176.00
2023-02-22T12:18:28.200Z,176.00
2023-02-22T12:19:28.185Z,176.00
2023-02-22T12:20:28.188Z,176.00
2023-02-22T12:21:28.168Z,172.00
2023-02-22T12:22:28.171Z,172.00
2023-02-22T12:23:28.162Z,172.00
2023-02-22T12:24:28.155Z,168.00
2023-02-22T12:25:28.183Z,168.00
2023-02-22T12:26:28.176Z,168.00
2023-02-22T12:27:28.217Z,172.00
2023-02-22T12:28:28.208Z,172.00
2023-02-22T12:29:28.159Z,176.00
2023-02-22T12:30:28.210Z,176.00
2023-02-22T12:31:28.166Z,180.00
2023-02-22T12:32:28.210Z,176.00
2023-02-22T12:33:28.171Z,180.00
2023-02-22T12:34:28.239Z,180.00
2023-02-22T12:35:28.115Z,184.00
2023-02-22T12:36:28.130Z,184.00
2023-02-22T12:37:28.120Z,184.00
2023-02-22T12:38:28.105Z,184.00
2023-02-22T12:39:28.112Z,188.00
2023-02-22T12:40:28.109Z,188.00
2023-02-22T12:41:28.096Z,188.00
2023-02-22T12:42:28.092Z,188.00
2023-02-22T12:43:28.086Z,184.00
2023-02-22T12:44:28.090Z,180.00
2023-02-22T12:45:28.109Z,180.00
2023-02-22T12:46:28.143Z,184.00
2023-02-22T12:47:28.086Z,180.00
2023-02-22T12:48:28.091Z,180.00
2023-02-22T12:49:28.064Z,180.00
2023-02-22T12:50:28.076Z,184.00
2023-02-22T12:51:28.055Z,192.00
2023-02-22T12:52:28.077Z,196.00
2023-02-22T12:53:28.063Z,196.00
2023-02-22T12:54:28.069Z,192.00